createdAt,value
2017-09-08T00:02:07.671Z,70.11
2017-09-08T00:04:35.216Z,70.06
2017-09-08T00:07:02.619Z,69.33
2017-09-08T00:09:30.012Z,70.08
2017-09-08T00:11:57.403Z,69.43
2017-09-08T00:14:24.799Z,69.42
2017-09-08T00:16:52.339Z,69.32
2017-09-08T00:19:19.731Z,69.17
2017-09-08T00:21:47.123Z,69.94
2017-09-08T00:24:15.378Z,69.41
2017-09-08T00:26:42.772Z,70.07
2017-09-08T00:29:10.574Z,69.93
2017-09-08T00:31:37.966Z,69.94
2017-09-08T00:34:05.358Z,69.70
2017-09-08T00:36:32.760Z,69.86
2017-09-08T00:39:00.153Z,70.16
2017-09-08T00:41:27.699Z,69.66
2017-09-08T00:43:55.086Z,70.27
2017-09-08T00:46:22.483Z,69.88
2017-09-08T00:48:49.892Z,69.48
2017-09-08T00:51:17.287Z,69.74
2017-09-08T00:53:44.832Z,70.26
2017-09-08T00:56:12.223Z,70.23
2017-09-08T00:58:39.612Z,70.12
2017-09-08T01:01:07.016Z,70.25
2017-09-08T01:03:34.394Z,70.85
2017-09-08T01:06:01.830Z,70.49
2017-09-08T01:08:29.222Z,70.29
2017-09-08T01:10:56.614Z,70.94
2017-09-08T01:13:24.011Z,71.35
2017-09-08T01:15:51.403Z,70.67
2017-09-08T01:18:18.907Z,70.83
2017-09-08T01:20:46.299Z,71.24
2017-09-08T01:23:13.695Z,71.22
2017-09-08T01:25:41.095Z,71.51
2017-09-08T01:28:08.487Z,71.45
2017-09-08T01:30:36.054Z,71.54
2017-09-08T01:33:03.443Z,71.91
2017-09-08T01:35:30.834Z,71.67
2017-09-08T01:37:58.235Z,72.03
2017-09-08T01:40:25.632Z,70.93
2017-09-08T01:42:53.063Z,71.35
2017-09-08T01:45:20.455Z,70.54
2017-09-08T01:47:47.846Z,70.95
2017-09-08T01:50:15.248Z,71.06
2017-09-08T01:52:42.643Z,71.19
2017-09-08T01:55:10.183Z,70.71
2017-09-08T01:57:37.575Z,70.62
2017-09-08T02:00:04.966Z,71.18
2017-09-08T02:02:32.370Z,71.40
2017-09-08T02:04:59.768Z,70.70
2017-09-08T02:07:27.182Z,70.89
2017-09-08T02:09:54.573Z,70.93
2017-09-08T02:12:21.966Z,70.66
2017-09-08T02:14:49.364Z,70.64
2017-09-08T02:17:16.750Z,70.55
2017-09-08T02:19:44.146Z,70.83
2017-09-08T02:22:13.337Z,70.83
2017-09-08T02:24:40.903Z,70.68
2017-09-08T02:27:08.295Z,70.65
2017-09-08T02:29:35.686Z,70.67
2017-09-08T02:32:03.088Z,70.78
2017-09-08T02:34:30.478Z,70.91
2017-09-08T02:36:57.882Z,71.00
2017-09-08T02:39:25.285Z,70.99
2017-09-08T02:41:52.679Z,70.85
2017-09-08T02:44:20.099Z,71.86
2017-09-08T02:46:47.491Z,72.28
2017-09-08T02:49:14.886Z,71.87
2017-09-08T02:51:42.294Z,71.83
2017-09-08T02:54:09.678Z,71.19
2017-09-08T02:56:37.066Z,71.06
2017-09-08T02:59:04.466Z,71.29
2017-09-08T03:01:31.856Z,71.43
2017-09-08T03:03:59.243Z,71.42
2017-09-08T03:06:26.644Z,70.85
2017-09-08T03:08:54.030Z,71.57
2017-09-08T03:11:21.427Z,71.87
2017-09-08T03:13:48.819Z,71.76
2017-09-08T03:16:16.219Z,71.79
2017-09-08T03:18:43.720Z,72.28
2017-09-08T03:21:11.113Z,72.62
2017-09-08T03:23:38.514Z,72.28
2017-09-08T03:26:05.915Z,72.12
2017-09-08T03:28:33.298Z,72.07
2017-09-08T03:31:00.727Z,71.95
2017-09-08T03:33:28.114Z,71.64
2017-09-08T03:35:55.512Z,72.30
2017-09-08T03:38:22.907Z,71.93
2017-09-08T03:40:50.289Z,71.21
2017-09-08T03:43:17.796Z,71.80
2017-09-08T03:45:45.178Z,72.51
2017-09-08T03:48:12.587Z,71.18
2017-09-08T03:50:39.980Z,72.30
2017-09-08T03:53:07.375Z,72.01
2017-09-08T03:55:34.802Z,71.96
2017-09-08T03:58:02.190Z,71.99
2017-09-08T04:00:29.581Z,71.80
2017-09-08T04:02:56.970Z,71.42
2017-09-08T04:05:24.355Z,71.54
2017-09-08T04:07:51.903Z,70.77
2017-09-08T04:10:19.282Z,71.11
2017-09-08T04:12:46.670Z,71.49
2017-09-08T04:15:14.066Z,71.43
2017-09-08T04:17:41.458Z,71.35
2017-09-08T04:20:08.871Z,71.76
2017-09-08T04:22:36.273Z,71.50
2017-09-08T04:25:03.662Z,71.28
2017-09-08T04:27:31.078Z,71.08
2017-09-08T04:29:58.458Z,70.13
2017-09-08T04:32:26.008Z,70.01
2017-09-08T04:34:53.391Z,69.64
2017-09-08T04:37:20.775Z,70.45
2017-09-08T04:39:48.171Z,70.89
2017-09-08T04:42:15.559Z,70.02
2017-09-08T04:44:43.098Z,70.24
2017-09-08T04:47:10.486Z,70.00
2017-09-08T04:49:37.879Z,70.30
2017-09-08T04:52:05.650Z,69.94
2017-09-08T04:54:33.064Z,69.95
2017-09-08T04:57:00.737Z,69.46
2017-09-08T04:59:28.133Z,69.80
2017-09-08T05:01:55.519Z,70.31
2017-09-08T05:04:22.909Z,70.81
2017-09-08T05:06:50.308Z,69.96
2017-09-08T05:09:17.714Z,69.84
2017-09-08T05:11:45.111Z,69.67
2017-09-08T05:14:12.499Z,70.19
2017-09-08T05:16:39.886Z,69.73
2017-09-08T05:19:07.279Z,71.52
2017-09-08T05:21:34.823Z,70.26
2017-09-08T05:24:02.211Z,70.59
2017-09-08T05:26:29.600Z,71.23
2017-09-08T05:28:56.995Z,71.93
2017-09-08T05:31:24.382Z,72.07
2017-09-08T05:33:51.780Z,71.09
2017-09-08T05:36:19.167Z,71.71
2017-09-08T05:38:46.550Z,71.50
2017-09-08T05:41:13.952Z,70.45
2017-09-08T05:43:41.379Z,71.62
2017-09-08T05:46:08.929Z,70.74
2017-09-08T05:48:36.314Z,70.99
2017-09-08T05:51:03.706Z,70.80
2017-09-08T05:53:31.190Z,71.08
2017-09-08T05:55:58.584Z,70.76
2017-09-08T05:58:25.980Z,70.73
2017-09-08T06:00:53.366Z,70.92
2017-09-08T06:03:20.758Z,70.80
2017-09-08T06:05:48.156Z,71.35
2017-09-08T06:08:15.540Z,71.02
2017-09-08T06:10:43.226Z,71.37
2017-09-08T06:13:10.615Z,71.24
2017-09-08T06:15:38.004Z,71.48
2017-09-08T06:18:05.400Z,72.05
2017-09-08T06:20:32.790Z,71.34
2017-09-08T06:23:00.442Z,71.00
2017-09-08T06:25:27.823Z,71.37
2017-09-08T06:27:55.202Z,70.41
2017-09-08T06:30:22.597Z,71.41
2017-09-08T06:32:49.990Z,70.38
2017-09-08T06:35:17.478Z,71.05
2017-09-08T06:37:44.870Z,71.13
2017-09-08T06:40:12.251Z,70.57
2017-09-08T06:42:39.642Z,71.10
2017-09-08T06:45:07.034Z,71.07
2017-09-08T06:47:34.707Z,71.22
2017-09-08T06:50:02.116Z,70.97
2017-09-08T06:52:29.506Z,70.52
2017-09-08T06:54:56.902Z,71.41
2017-09-08T06:57:24.292Z,71.63
2017-09-08T06:59:51.834Z,71.46
2017-09-08T07:02:19.219Z,71.10
2017-09-08T07:04:46.603Z,71.43
2017-09-08T07:07:13.994Z,70.77
2017-09-08T07:09:41.390Z,70.95
2017-09-08T07:12:08.791Z,71.56
2017-09-08T07:14:36.178Z,71.06
2017-09-08T07:17:03.566Z,69.99
2017-09-08T07:19:31.002Z,70.03
2017-09-08T07:21:58.366Z,70.06
2017-09-08T07:24:25.768Z,70.17
2017-09-08T07:26:53.152Z,70.32
2017-09-08T07:29:20.538Z,70.16
2017-09-08T07:31:47.930Z,69.26
2017-09-08T07:34:15.331Z,68.71
2017-09-08T07:36:43.031Z,68.81
2017-09-08T07:39:10.420Z,68.92
2017-09-08T07:41:37.803Z,68.49
2017-09-08T07:44:05.206Z,68.80
2017-09-08T07:46:32.599Z,68.69
2017-09-08T07:49:00.139Z,69.12
2017-09-08T07:51:27.522Z,69.97
2017-09-08T07:53:54.907Z,68.39
2017-09-08T07:56:22.304Z,69.20
2017-09-08T07:58:49.699Z,69.00
2017-09-08T08:01:17.110Z,68.08
2017-09-08T08:03:44.494Z,67.97
2017-09-08T08:06:11.878Z,68.00
2017-09-08T08:08:39.271Z,68.57
2017-09-08T08:11:06.650Z,68.02
2017-09-08T08:13:34.199Z,68.40
2017-09-08T08:16:01.587Z,68.53
2017-09-08T08:18:28.972Z,68.63
2017-09-08T08:20:56.358Z,68.94
2017-09-08T08:23:23.746Z,68.75
2017-09-08T08:25:51.282Z,69.13
2017-09-08T08:28:18.674Z,68.07
2017-09-08T08:30:46.054Z,69.57
2017-09-08T08:33:13.450Z,69.06
2017-09-08T08:35:40.841Z,67.61
2017-09-08T08:38:08.240Z,67.38
2017-09-08T08:40:35.640Z,68.13
2017-09-08T08:43:03.030Z,67.57
2017-09-08T08:45:30.428Z,67.80
2017-09-08T08:47:57.818Z,67.16
2017-09-08T08:50:25.355Z,68.20
2017-09-08T08:52:52.743Z,67.08
2017-09-08T08:55:20.123Z,67.84
2017-09-08T08:57:47.512Z,69.25
2017-09-08T09:00:14.895Z,67.96
2017-09-08T09:02:42.432Z,67.62
2017-09-08T09:05:09.811Z,67.42
2017-09-08T09:07:37.200Z,67.88
2017-09-08T09:10:04.593Z,68.42
2017-09-08T09:12:31.979Z,67.35
2017-09-08T09:14:59.370Z,68.25
2017-09-08T09:17:26.750Z,66.59
2017-09-08T09:19:54.135Z,67.59
2017-09-08T09:22:21.856Z,67.28
2017-09-08T09:24:49.234Z,67.11
2017-09-08T09:27:16.617Z,67.18
2017-09-08T09:29:44.159Z,66.61
2017-09-08T09:32:11.546Z,66.77
2017-09-08T09:34:38.932Z,66.82
2017-09-08T09:37:06.338Z,66.57
2017-09-08T09:39:33.727Z,67.02
2017-09-08T09:42:01.116Z,67.59
2017-09-08T09:44:28.521Z,66.90
2017-09-08T09:46:55.905Z,66.89
2017-09-08T09:49:23.296Z,66.55
2017-09-08T09:51:50.841Z,67.65
2017-09-08T09:54:18.229Z,66.71
2017-09-08T09:56:45.619Z,66.38
2017-09-08T09:59:13.038Z,66.37
2017-09-08T10:01:40.414Z,66.33
2017-09-08T10:04:07.795Z,67.19
2017-09-08T10:06:35.179Z,66.54
2017-09-08T10:09:02.564Z,66.26
2017-09-08T10:11:29.980Z,67.08
2017-09-08T10:13:57.367Z,65.30
2017-09-08T10:16:24.742Z,66.10
2017-09-08T10:18:52.130Z,64.96
2017-09-08T10:21:19.520Z,65.77
2017-09-08T10:23:46.930Z,65.98
2017-09-08T10:26:14.311Z,66.82
2017-09-08T10:28:41.694Z,65.04
2017-09-08T10:31:09.084Z,66.05
2017-09-08T10:33:36.468Z,65.47
2017-09-08T10:36:04.144Z,66.17
2017-09-08T10:38:31.530Z,65.85
2017-09-08T10:40:58.909Z,65.40
2017-09-08T10:43:26.303Z,66.22
2017-09-08T10:45:53.683Z,65.96
2017-09-08T10:48:21.214Z,66.49
2017-09-08T10:50:48.603Z,66.31
2017-09-08T10:53:15.990Z,67.13
2017-09-08T10:55:43.382Z,67.33
2017-09-08T10:58:10.765Z,67.04
2017-09-08T11:00:38.523Z,67.07
2017-09-08T11:03:05.898Z,67.10
2017-09-08T11:05:33.291Z,67.29
2017-09-08T11:08:00.687Z,66.69
2017-09-08T11:10:28.068Z,66.00
2017-09-08T11:12:55.478Z,67.32
2017-09-08T11:15:22.870Z,68.20
2017-09-08T11:17:50.263Z,69.74
2017-09-08T11:20:17.654Z,71.43
2017-09-08T11:22:45.038Z,73.29
2017-09-08T11:25:12.529Z,74.58
2017-09-08T11:27:39.934Z,75.38
2017-09-08T11:30:07.321Z,75.65
2017-09-08T11:32:40.383Z,76.38
2017-09-08T11:35:13.251Z,77.46
2017-09-08T11:37:40.639Z,78.00
2017-09-08T11:40:08.015Z,78.87
2017-09-08T11:42:35.414Z,79.01
2017-09-08T11:45:02.803Z,80.00
2017-09-08T11:47:30.186Z,80.14
2017-09-08T11:49:57.582Z,81.02
2017-09-08T11:52:24.962Z,81.57
2017-09-08T11:54:52.386Z,82.17
2017-09-08T11:57:19.773Z,82.86
2017-09-08T11:59:47.151Z,83.63
2017-09-08T12:02:14.545Z,83.47
2017-09-08T12:04:41.972Z,84.66
2017-09-08T12:07:09.355Z,84.06
2017-09-08T12:09:36.738Z,84.14
2017-09-08T12:12:04.127Z,84.87
2017-09-08T12:14:31.518Z,85.34
2017-09-08T12:16:59.246Z,85.53
2017-09-08T12:19:26.622Z,85.55
2017-09-08T12:21:54.007Z,85.34
2017-09-08T12:24:21.402Z,85.67
2017-09-08T12:26:48.788Z,85.70
2017-09-08T12:29:16.185Z,85.58
2017-09-08T12:31:43.579Z,85.45
2017-09-08T12:34:11.772Z,85.48
2017-09-08T12:36:39.158Z,85.83
2017-09-08T12:39:06.544Z,85.55
2017-09-08T12:41:33.958Z,86.06
2017-09-08T12:44:01.353Z,86.10
2017-09-08T12:46:28.734Z,86.23
2017-09-08T12:48:56.124Z,86.59
2017-09-08T12:51:23.508Z,86.72
2017-09-08T12:53:51.383Z,86.81
2017-09-08T12:56:18.772Z,86.90
2017-09-08T12:58:46.299Z,87.12
2017-09-08T13:01:13.683Z,86.81
2017-09-08T13:03:41.065Z,86.99
2017-09-08T13:06:08.511Z,87.59
2017-09-08T13:08:35.896Z,87.31
2017-09-08T13:11:03.278Z,87.45
2017-09-08T13:13:30.726Z,87.36
2017-09-08T13:15:58.106Z,87.33
2017-09-08T13:18:25.668Z,87.58
2017-09-08T13:20:53.048Z,87.63
2017-09-08T13:23:21.123Z,87.27
2017-09-08T13:25:48.755Z,87.22
2017-09-08T13:28:16.121Z,87.20
2017-09-08T13:30:43.523Z,87.15
2017-09-08T13:33:10.919Z,87.08
2017-09-08T13:35:42.678Z,87.08
2017-09-08T13:38:10.127Z,87.08
2017-09-08T13:40:37.507Z,87.23
2017-09-08T13:43:04.891Z,87.31
2017-09-08T13:45:32.271Z,87.29
2017-09-08T13:47:59.659Z,87.16
2017-09-08T13:50:27.034Z,86.73
2017-09-08T13:52:54.718Z,87.05
2017-09-08T13:55:22.119Z,87.22
2017-09-08T13:57:49.498Z,87.41
2017-09-08T14:00:16.894Z,87.44
2017-09-08T14:02:44.339Z,87.21
2017-09-08T14:05:11.882Z,87.24
2017-09-08T14:07:39.271Z,87.40
2017-09-08T14:10:06.660Z,87.31
2017-09-08T14:12:34.059Z,87.09
2017-09-08T14:15:01.448Z,87.06
2017-09-08T14:17:28.994Z,87.24
2017-09-08T14:19:56.387Z,87.36
2017-09-08T14:22:23.766Z,87.28
2017-09-08T14:24:51.154Z,87.21
2017-09-08T14:27:18.587Z,87.29
2017-09-08T14:29:46.011Z,87.01
2017-09-08T14:32:13.390Z,87.18
2017-09-08T14:34:40.798Z,86.75
2017-09-08T14:37:08.189Z,87.07
2017-09-08T14:39:35.566Z,87.27
2017-09-08T14:42:04.931Z,87.12
2017-09-08T14:44:32.316Z,87.00
2017-09-08T14:46:59.694Z,87.03
2017-09-08T14:49:27.098Z,87.26
2017-09-08T14:51:54.479Z,87.21
2017-09-08T14:54:22.208Z,86.94
2017-09-08T14:56:49.590Z,87.06
2017-09-08T14:59:16.971Z,87.29
2017-09-08T15:01:44.379Z,87.52
2017-09-08T15:04:11.762Z,87.54
2017-09-08T15:06:39.178Z,87.60
2017-09-08T15:09:06.567Z,87.28
2017-09-08T15:11:33.950Z,87.48
2017-09-08T15:14:01.342Z,87.52
2017-09-08T15:16:28.722Z,87.70
2017-09-08T15:18:56.118Z,87.94
2017-09-08T15:21:23.504Z,88.15
2017-09-08T15:23:50.883Z,88.30
2017-09-08T15:26:18.270Z,88.22
2017-09-08T15:28:45.650Z,87.94
2017-09-08T15:31:13.194Z,87.55
2017-09-08T15:33:40.574Z,87.72
2017-09-08T15:36:07.954Z,87.90
2017-09-08T15:38:35.342Z,87.47
2017-09-08T15:41:02.726Z,87.47
2017-09-08T15:43:30.120Z,87.47
2017-09-08T15:45:57.507Z,87.36
2017-09-08T15:48:24.887Z,87.46
2017-09-08T15:50:52.270Z,87.57
2017-09-08T15:53:19.654Z,87.71
2017-09-08T15:55:47.047Z,87.56
2017-09-08T15:58:14.425Z,87.68
2017-09-08T16:00:41.922Z,87.38
2017-09-08T16:03:09.303Z,87.44
2017-09-08T16:05:36.691Z,87.43
2017-09-08T16:08:04.083Z,87.80
2017-09-08T16:10:31.482Z,87.33
2017-09-08T16:12:59.014Z,87.92
2017-09-08T16:15:26.406Z,88.16
2017-09-08T16:17:53.791Z,88.12
2017-09-08T16:20:21.178Z,88.54
2017-09-08T16:22:48.563Z,89.17
2017-09-08T16:25:16.104Z,89.60
2017-09-08T16:27:43.491Z,89.85
2017-09-08T16:30:10.874Z,90.04
2017-09-08T16:32:38.264Z,90.46
2017-09-08T16:35:05.652Z,90.75
2017-09-08T16:37:33.058Z,90.68
2017-09-08T16:40:00.435Z,90.91
2017-09-08T16:42:27.819Z,90.86
2017-09-08T16:44:55.205Z,90.78
2017-09-08T16:47:22.583Z,90.70
2017-09-08T16:49:50.378Z,90.69
2017-09-08T16:52:17.777Z,90.54
2017-09-08T16:54:45.159Z,90.65
2017-09-08T16:57:12.544Z,90.74
2017-09-08T16:59:39.933Z,90.50
2017-09-08T17:02:07.423Z,90.46
2017-09-08T17:04:34.810Z,90.70
2017-09-08T17:07:02.190Z,90.73
2017-09-08T17:09:29.578Z,90.86
2017-09-08T17:11:56.963Z,90.99
2017-09-08T17:14:24.363Z,90.79
2017-09-08T17:16:51.750Z,90.68
2017-09-08T17:19:19.134Z,90.77
2017-09-08T17:21:46.538Z,90.58
2017-09-08T17:24:13.929Z,90.43
2017-09-08T17:26:41.298Z,90.25
2017-09-08T17:29:08.690Z,90.13
2017-09-08T17:31:36.075Z,90.14
2017-09-08T17:34:03.462Z,89.91
2017-09-08T17:36:30.851Z,89.65
2017-09-08T17:38:58.239Z,89.92
2017-09-08T17:41:25.631Z,89.72
2017-09-08T17:43:53.019Z,90.28
2017-09-08T17:46:20.402Z,90.70
2017-09-08T17:48:47.823Z,91.16
2017-09-08T17:51:15.182Z,91.51
2017-09-08T17:53:42.718Z,91.21
2017-09-08T17:56:10.106Z,91.23
2017-09-08T17:58:37.501Z,91.33
2017-09-08T18:01:04.894Z,91.33
2017-09-08T18:03:32.300Z,91.40
2017-09-08T18:06:03.493Z,91.24
2017-09-08T18:08:30.875Z,91.19
2017-09-08T18:10:58.258Z,91.47
2017-09-08T18:13:25.661Z,91.43
2017-09-08T18:15:53.043Z,91.59
2017-09-08T18:18:20.678Z,91.56
2017-09-08T18:20:48.062Z,91.71
2017-09-08T18:23:15.461Z,91.59
2017-09-08T18:25:42.861Z,91.71
2017-09-08T18:28:10.240Z,91.76
2017-09-08T18:30:37.643Z,91.82
2017-09-08T18:33:05.033Z,91.85
2017-09-08T18:35:32.436Z,91.65
2017-09-08T18:37:59.823Z,91.52
2017-09-08T18:40:27.211Z,91.66
2017-09-08T18:42:54.731Z,91.55
2017-09-08T18:45:22.115Z,91.59
2017-09-08T18:47:49.509Z,91.43
2017-09-08T18:50:16.909Z,91.40
2017-09-08T18:52:44.310Z,91.34
2017-09-08T18:55:11.850Z,91.14
2017-09-08T18:57:39.242Z,91.34
2017-09-08T19:00:06.638Z,91.35
2017-09-08T19:02:34.195Z,91.26
2017-09-08T19:05:01.591Z,91.22
2017-09-08T19:07:29.113Z,91.08
2017-09-08T19:09:56.493Z,90.96
2017-09-08T19:12:23.888Z,90.97
2017-09-08T19:14:51.288Z,91.17
2017-09-08T19:17:18.676Z,91.12
2017-09-08T19:19:46.171Z,90.98
2017-09-08T19:22:13.558Z,90.89
2017-09-08T19:24:40.951Z,91.21
2017-09-08T19:27:08.346Z,91.23
2017-09-08T19:29:35.722Z,91.31
2017-09-08T19:32:03.263Z,91.27
2017-09-08T19:34:30.651Z,91.07
2017-09-08T19:36:58.052Z,91.12
2017-09-08T19:39:25.435Z,91.31
2017-09-08T19:41:52.825Z,91.38
2017-09-08T19:44:20.242Z,91.39
2017-09-08T19:46:47.633Z,91.51
2017-09-08T19:49:15.038Z,91.54
2017-09-08T19:51:42.419Z,91.68
2017-09-08T19:54:09.802Z,91.75
2017-09-08T19:56:37.346Z,91.87
2017-09-08T19:59:04.736Z,91.56
2017-09-08T20:01:32.134Z,91.64
2017-09-08T20:03:59.535Z,91.58
2017-09-08T20:06:26.919Z,91.62
2017-09-08T20:08:54.471Z,91.64
2017-09-08T20:11:21.867Z,91.66
2017-09-08T20:13:49.259Z,91.72
2017-09-08T20:16:16.651Z,91.56
2017-09-08T20:18:44.039Z,91.58
2017-09-08T20:21:11.586Z,91.61
2017-09-08T20:23:38.987Z,91.40
2017-09-08T20:26:06.366Z,91.49
2017-09-08T20:28:33.766Z,91.43
2017-09-08T20:31:01.154Z,91.33
2017-09-08T20:33:28.582Z,91.43
2017-09-08T20:35:55.986Z,91.48
2017-09-08T20:38:23.358Z,91.47
2017-09-08T20:40:50.750Z,91.55
2017-09-08T20:43:18.145Z,91.60
2017-09-08T20:45:45.686Z,91.71
2017-09-08T20:48:13.063Z,91.62
2017-09-08T20:50:40.456Z,91.62
2017-09-08T20:53:07.853Z,91.56
2017-09-08T20:55:35.242Z,91.65
2017-09-08T20:58:02.637Z,91.73
2017-09-08T21:00:30.043Z,91.70
2017-09-08T21:02:57.448Z,91.77
2017-09-08T21:05:24.832Z,91.65
2017-09-08T21:07:52.218Z,91.35
2017-09-08T21:10:19.623Z,91.57
2017-09-08T21:12:47.020Z,92.00
2017-09-08T21:15:14.411Z,91.98
2017-09-08T21:17:41.810Z,92.17
2017-09-08T21:20:09.208Z,92.38
2017-09-08T21:22:36.707Z,92.20
2017-09-08T21:25:04.098Z,92.03
2017-09-08T21:27:31.487Z,92.07
2017-09-08T21:29:58.890Z,92.32
2017-09-08T21:32:26.274Z,92.46
2017-09-08T21:34:53.703Z,92.55
2017-09-08T21:37:21.102Z,92.44
2017-09-08T21:39:48.493Z,92.07
2017-09-08T21:42:15.890Z,91.99
2017-09-08T21:44:43.298Z,92.09
2017-09-08T21:47:10.837Z,92.25
2017-09-08T21:49:38.207Z,92.44
2017-09-08T21:52:05.601Z,92.50
2017-09-08T21:54:32.994Z,92.59
2017-09-08T21:57:00.390Z,92.67
2017-09-08T21:59:27.806Z,92.70
2017-09-08T22:01:55.210Z,92.67
2017-09-08T22:04:22.606Z,92.54
2017-09-08T22:06:50.009Z,92.58
2017-09-08T22:09:17.398Z,92.39
2017-09-08T22:11:44.810Z,92.37
2017-09-08T22:14:12.213Z,92.46
2017-09-08T22:16:39.602Z,92.04
2017-09-08T22:19:07.007Z,92.01
2017-09-08T22:21:34.403Z,92.07
2017-09-08T22:24:01.915Z,92.03
2017-09-08T22:26:29.311Z,91.94
2017-09-08T22:28:56.698Z,91.79
2017-09-08T22:31:24.113Z,91.65
2017-09-08T22:33:51.486Z,91.51
2017-09-08T22:36:18.987Z,91.73
2017-09-08T22:38:46.378Z,92.01
2017-09-08T22:41:13.766Z,92.22
2017-09-08T22:43:41.167Z,92.30
2017-09-08T22:46:08.559Z,92.03
2017-09-08T22:48:36.098Z,91.47
2017-09-08T22:51:03.491Z,91.82
2017-09-08T22:53:30.882Z,92.04
2017-09-08T22:55:58.277Z,92.15
2017-09-08T22:58:25.675Z,92.17
2017-09-08T23:00:53.190Z,92.28
2017-09-08T23:03:20.581Z,92.30
2017-09-08T23:05:47.974Z,92.24
2017-09-08T23:08:15.374Z,92.14
2017-09-08T23:10:42.766Z,92.13
2017-09-08T23:13:10.191Z,92.26
2017-09-08T23:15:37.587Z,92.20
2017-09-08T23:18:04.982Z,92.25
2017-09-08T23:20:32.379Z,92.29
2017-09-08T23:22:59.787Z,92.26
2017-09-08T23:25:27.210Z,92.28
2017-09-08T23:27:54.587Z,92.34
2017-09-08T23:30:21.978Z,92.33
2017-09-08T23:32:49.382Z,92.41
2017-09-08T23:35:16.771Z,92.38
2017-09-08T23:37:44.324Z,92.26
2017-09-08T23:40:11.709Z,92.32
2017-09-08T23:42:39.103Z,92.32
2017-09-08T23:45:06.498Z,92.39
2017-09-08T23:47:33.897Z,92.08
2017-09-08T23:50:01.307Z,91.85
2017-09-08T23:52:28.701Z,91.96
2017-09-08T23:54:56.087Z,92.21
2017-09-08T23:57:23.487Z,92.20
2017-09-08T23:59:50.869Z,92.29
